sensor_id;sensor_type;location;lat;lon;timestamp;P1;durP1;ratioP1;P2;durP2;ratioP2
3601;SDS011;1815;50.950;6.920;2023-02-28T00:01:26;3.15;;;1.10;;
3601;SDS011;1815;50.950;6.920;2023-02-28T00:03:52;2.83;;;1.13;;
3601;SDS011;1815;50.950;6.920;2023-02-28T00:06:18;5.70;;;1.07;;
3601;SDS011;1815;50.950;6.920;2023-02-28T00:08:44;2.63;;;1.10;;
3601;SDS011;1815;50.950;6.920;2023-02-28T00:14:00;4.15;;;1.30;;
3601;SDS011;1815;50.950;6.920;2023-02-28T00:16:26;2.50;;;1.40;;
3601;SDS011;1815;50.950;6.920;2023-02-28T00:18:51;1.80;;;1.20;;
3601;SDS011;1815;50.950;6.920;2023-02-28T00:21:18;2.03;;;1.17;;
3601;SDS011;1815;50.950;6.920;2023-02-28T00:23:44;1.95;;;1.05;;
3601;SDS011;1815;50.950;6.920;2023-02-28T00:26:10;2.43;;;1.07;;
3601;SDS011;1815;50.950;6.920;2023-02-28T00:28:36;2.95;;;1.17;;
3601;SDS011;1815;50.950;6.920;2023-02-28T00:31:02;4.90;;;1.40;;
3601;SDS011;1815;50.950;6.920;2023-02-28T00:33:28;2.60;;;1.35;;
3601;SDS011;1815;50.950;6.920;2023-02-28T00:36:01;1.87;;;0.90;;
3601;SDS011;1815;50.950;6.920;2023-02-28T00:38:29;2.80;;;1.17;;
3601;SDS011;1815;50.950;6.920;2023-02-28T00:40:55;3.90;;;1.20;;
3601;SDS011;1815;50.950;6.920;2023-02-28T00:43:21;3.47;;;1.90;;
3601;SDS011;1815;50.950;6.920;2023-02-28T00:45:47;4.10;;;1.10;;
3601;SDS011;1815;50.950;6.920;2023-02-28T00:48:12;3.50;;;1.20;;
3601;SDS011;1815;50.950;6.920;2023-02-28T00:50:38;3.43;;;1.63;;
3601;SDS011;1815;50.950;6.920;2023-02-28T00:53:04;4.17;;;1.40;;
3601;SDS011;1815;50.950;6.920;2023-02-28T00:55:29;1.87;;;0.90;;
3601;SDS011;1815;50.950;6.920;2023-02-28T00:57:55;1.73;;;1.00;;
3601;SDS011;1815;50.950;6.920;2023-02-28T01:00:21;2.60;;;1.37;;
3601;SDS011;1815;50.950;6.920;2023-02-28T01:02:49;3.55;;;1.02;;
3601;SDS011;1815;50.950;6.920;2023-02-28T01:05:15;1.90;;;1.10;;
3601;SDS011;1815;50.950;6.920;2023-02-28T01:07:40;1.97;;;1.37;;
3601;SDS011;1815;50.950;6.920;2023-02-28T01:10:06;1.93;;;1.20;;
3601;SDS011;1815;50.950;6.920;2023-02-28T01:12:32;1.60;;;1.02;;
3601;SDS011;1815;50.950;6.920;2023-02-28T01:14:58;4.60;;;1.60;;
3601;SDS011;1815;50.950;6.920;2023-02-28T01:17:24;2.33;;;1.07;;
3601;SDS011;1815;50.950;6.920;2023-02-28T01:19:52;2.17;;;1.27;;
3601;SDS011;1815;50.950;6.920;2023-02-28T01:22:20;2.15;;;1.48;;
3601;SDS011;1815;50.950;6.920;2023-02-28T01:24:45;2.83;;;1.30;;
3601;SDS011;1815;50.950;6.920;2023-02-28T01:27:11;2.93;;;1.40;;
3601;SDS011;1815;50.950;6.920;2023-02-28T01:29:37;2.20;;;1.10;;
3601;SDS011;1815;50.950;6.920;2023-02-28T01:32:03;2.13;;;1.27;;
3601;SDS011;1815;50.950;6.920;2023-02-28T01:34:28;4.10;;;1.97;;
3601;SDS011;1815;50.950;6.920;2023-02-28T01:36:54;2.00;;;1.20;;
3601;SDS011;1815;50.950;6.920;2023-02-28T01:39:20;2.33;;;1.33;;
3601;SDS011;1815;50.950;6.920;2023-02-28T01:41:46;2.15;;;1.10;;
3601;SDS011;1815;50.950;6.920;2023-02-28T01:47:15;4.15;;;1.38;;
3601;SDS011;1815;50.950;6.920;2023-02-28T01:49:41;2.13;;;1.10;;
3601;SDS011;1815;50.950;6.920;2023-02-28T01:52:07;2.03;;;0.95;;
3601;SDS011;1815;50.950;6.920;2023-02-28T01:54:42;2.63;;;0.90;;
3601;SDS011;1815;50.950;6.920;2023-02-28T01:57:18;2.40;;;1.20;;
3601;SDS011;1815;50.950;6.920;2023-02-28T01:59:48;2.50;;;1.10;;
3601;SDS011;1815;50.950;6.920;2023-02-28T02:02:19;2.17;;;1.40;;
3601;SDS011;1815;50.950;6.920;2023-02-28T02:05:10;2.22;;;1.48;;
3601;SDS011;1815;50.950;6.920;2023-02-28T02:07:45;1.65;;;1.05;;
3601;SDS011;1815;50.950;6.920;2023-02-28T02:10:14;5.38;;;1.00;;
3601;SDS011;1815;50.950;6.920;2023-02-28T02:15:20;2.30;;;0.93;;
3601;SDS011;1815;50.950;6.920;2023-02-28T02:18:01;2.75;;;1.02;;
3601;SDS011;1815;50.950;6.920;2023-02-28T02:34:23;2.67;;;1.00;;
3601;SDS011;1815;50.950;6.920;2023-02-28T02:39:48;4.50;;;0.98;;
3601;SDS011;1815;50.950;6.920;2023-02-28T02:42:33;2.65;;;1.13;;
3601;SDS011;1815;50.950;6.920;2023-02-28T02:45:45;2.50;;;1.10;;
3601;SDS011;1815;50.950;6.920;2023-02-28T02:47:53;3.35;;;0.93;;
3601;SDS011;1815;50.950;6.920;2023-02-28T02:50:29;1.60;;;1.00;;
3601;SDS011;1815;50.950;6.920;2023-02-28T02:53:00;2.03;;;1.00;;
3601;SDS011;1815;50.950;6.920;2023-02-28T02:55:33;2.30;;;1.00;;
3601;SDS011;1815;50.950;6.920;2023-02-28T02:58:03;2.40;;;0.98;;
3601;SDS011;1815;50.950;6.920;2023-02-28T03:00:41;1.80;;;0.90;;
3601;SDS011;1815;50.950;6.920;2023-02-28T03:03:11;2.03;;;1.20;;
3601;SDS011;1815;50.950;6.920;2023-02-28T03:05:48;2.30;;;1.35;;
3601;SDS011;1815;50.950;6.920;2023-02-28T03:08:14;3.28;;;1.25;;
3601;SDS011;1815;50.950;6.920;2023-02-28T03:10:44;2.47;;;1.10;;
3601;SDS011;1815;50.950;6.920;2023-02-28T03:15:55;2.50;;;1.30;;
3601;SDS011;1815;50.950;6.920;2023-02-28T03:18:54;2.15;;;1.10;;
3601;SDS011;1815;50.950;6.920;2023-02-28T03:21:55;1.70;;;0.98;;
3601;SDS011;1815;50.950;6.920;2023-02-28T03:27:41;1.98;;;0.88;;
3601;SDS011;1815;50.950;6.920;2023-02-28T03:30:11;1.80;;;1.00;;
3601;SDS011;1815;50.950;6.920;2023-02-28T03:32:44;1.67;;;1.08;;
3601;SDS011;1815;50.950;6.920;2023-02-28T03:35:21;3.40;;;1.30;;
3601;SDS011;1815;50.950;6.920;2023-02-28T03:37:50;1.67;;;0.90;;
3601;SDS011;1815;50.950;6.920;2023-02-28T03:40:21;1.60;;;0.90;;
3601;SDS011;1815;50.950;6.920;2023-02-28T03:42:51;2.20;;;1.40;;
3601;SDS011;1815;50.950;6.920;2023-02-28T03:45:21;1.88;;;1.00;;
3601;SDS011;1815;50.950;6.920;2023-02-28T03:50:32;2.42;;;1.17;;
3601;SDS011;1815;50.950;6.920;2023-02-28T03:53:03;1.70;;;0.90;;
3601;SDS011;1815;50.950;6.920;2023-02-28T03:55:44;1.70;;;0.80;;
3601;SDS011;1815;50.950;6.920;2023-02-28T03:58:16;1.77;;;0.90;;
3601;SDS011;1815;50.950;6.920;2023-02-28T04:01:09;3.53;;;1.10;;
3601;SDS011;1815;50.950;6.920;2023-02-28T04:03:45;1.70;;;0.95;;
3601;SDS011;1815;50.950;6.920;2023-02-28T04:06:15;2.20;;;1.13;;
3601;SDS011;1815;50.950;6.920;2023-02-28T04:08:43;1.85;;;1.10;;
3601;SDS011;1815;50.950;6.920;2023-02-28T04:11:16;2.30;;;1.13;;
3601;SDS011;1815;50.950;6.920;2023-02-28T04:13:43;2.05;;;1.27;;
3601;SDS011;1815;50.950;6.920;2023-02-28T04:16:09;2.47;;;1.00;;
3601;SDS011;1815;50.950;6.920;2023-02-28T04:18:38;2.03;;;1.00;;
3601;SDS011;1815;50.950;6.920;2023-02-28T04:21:05;3.15;;;1.60;;
3601;SDS011;1815;50.950;6.920;2023-02-28T04:23:31;2.10;;;1.25;;
3601;SDS011;1815;50.950;6.920;2023-02-28T04:25:58;1.80;;;1.05;;
3601;SDS011;1815;50.950;6.920;2023-02-28T04:28:24;4.83;;;1.50;;
3601;SDS011;1815;50.950;6.920;2023-02-28T04:30:56;2.23;;;1.30;;
3601;SDS011;1815;50.950;6.920;2023-02-28T04:33:23;3.38;;;1.20;;
3601;SDS011;1815;50.950;6.920;2023-02-28T04:35:57;5.82;;;1.35;;
3601;SDS011;1815;50.950;6.920;2023-02-28T04:38:27;4.88;;;1.35;;
3601;SDS011;1815;50.950;6.920;2023-02-28T04:40:56;3.78;;;1.45;;
3601;SDS011;1815;50.950;6.920;2023-02-28T04:43:22;4.40;;;1.65;;
3601;SDS011;1815;50.950;6.920;2023-02-28T04:45:48;1.70;;;1.20;;
3601;SDS011;1815;50.950;6.920;2023-02-28T04:48:14;3.20;;;1.00;;
3601;SDS011;1815;50.950;6.920;2023-02-28T04:50:39;2.35;;;1.73;;
3601;SDS011;1815;50.950;6.920;2023-02-28T04:53:05;2.53;;;1.20;;
3601;SDS011;1815;50.950;6.920;2023-02-28T04:55:31;2.53;;;1.70;;
3601;SDS011;1815;50.950;6.920;2023-02-28T04:57:56;2.27;;;1.30;;
3601;SDS011;1815;50.950;6.920;2023-02-28T05:00:22;2.30;;;1.40;;
3601;SDS011;1815;50.950;6.920;2023-02-28T05:02:49;3.47;;;1.63;;
3601;SDS011;1815;50.950;6.920;2023-02-28T05:05:14;2.13;;;1.20;;
3601;SDS011;1815;50.950;6.920;2023-02-28T05:07:43;5.50;;;1.73;;
3601;SDS011;1815;50.950;6.920;2023-02-28T05:10:10;1.92;;;1.30;;
3601;SDS011;1815;50.950;6.920;2023-02-28T05:12:36;2.15;;;1.48;;
3601;SDS011;1815;50.950;6.920;2023-02-28T05:15:02;2.63;;;1.33;;
3601;SDS011;1815;50.950;6.920;2023-02-28T05:17:30;2.40;;;1.05;;
3601;SDS011;1815;50.950;6.920;2023-02-28T05:19:56;3.10;;;1.50;;
3601;SDS011;1815;50.950;6.920;2023-02-28T05:22:22;3.20;;;1.50;;
3601;SDS011;1815;50.950;6.920;2023-02-28T05:24:47;4.57;;;1.70;;
3601;SDS011;1815;50.950;6.920;2023-02-28T05:27:13;2.20;;;1.50;;
3601;SDS011;1815;50.950;6.920;2023-02-28T05:29:39;1.70;;;1.20;;
3601;SDS011;1815;50.950;6.920;2023-02-28T05:34:37;3.65;;;1.75;;
3601;SDS011;1815;50.950;6.920;2023-02-28T05:37:04;2.78;;;1.20;;
3601;SDS011;1815;50.950;6.920;2023-02-28T05:39:30;2.20;;;1.30;;
3601;SDS011;1815;50.950;6.920;2023-02-28T05:41:56;5.53;;;1.53;;
3601;SDS011;1815;50.950;6.920;2023-02-28T05:44:22;3.05;;;1.42;;
3601;SDS011;1815;50.950;6.920;2023-02-28T05:46:48;2.57;;;1.60;;
3601;SDS011;1815;50.950;6.920;2023-02-28T05:49:13;2.60;;;1.60;;
3601;SDS011;1815;50.950;6.920;2023-02-28T05:51:39;2.53;;;1.10;;
3601;SDS011;1815;50.950;6.920;2023-02-28T05:54:05;1.80;;;0.97;;
3601;SDS011;1815;50.950;6.920;2023-02-28T05:56:31;3.15;;;1.25;;
3601;SDS011;1815;50.950;6.920;2023-02-28T05:58:59;2.30;;;1.77;;
3601;SDS011;1815;50.950;6.920;2023-02-28T06:01:35;3.80;;;2.50;;
3601;SDS011;1815;50.950;6.920;2023-02-28T06:04:03;3.88;;;1.63;;
3601;SDS011;1815;50.950;6.920;2023-02-28T06:06:30;2.63;;;1.08;;
3601;SDS011;1815;50.950;6.920;2023-02-28T06:08:56;2.23;;;1.47;;
3601;SDS011;1815;50.950;6.920;2023-02-28T06:11:22;2.75;;;1.40;;
3601;SDS011;1815;50.950;6.920;2023-02-28T06:13:57;3.03;;;1.50;;
3601;SDS011;1815;50.950;6.920;2023-02-28T06:16:27;3.05;;;1.70;;
3601;SDS011;1815;50.950;6.920;2023-02-28T06:18:53;1.88;;;1.13;;
3601;SDS011;1815;50.950;6.920;2023-02-28T06:21:22;4.15;;;1.30;;
3601;SDS011;1815;50.950;6.920;2023-02-28T06:23:48;2.20;;;1.10;;
3601;SDS011;1815;50.950;6.920;2023-02-28T06:26:13;1.67;;;1.03;;
3601;SDS011;1815;50.950;6.920;2023-02-28T06:28:39;1.90;;;1.27;;
3601;SDS011;1815;50.950;6.920;2023-02-28T06:31:08;1.70;;;1.00;;
3601;SDS011;1815;50.950;6.920;2023-02-28T06:33:36;2.25;;;1.25;;
3601;SDS011;1815;50.950;6.920;2023-02-28T06:36:03;5.60;;;1.35;;
3601;SDS011;1815;50.950;6.920;2023-02-28T06:38:29;2.90;;;1.52;;
3601;SDS011;1815;50.950;6.920;2023-02-28T06:40:56;1.95;;;1.42;;
3601;SDS011;1815;50.950;6.920;2023-02-28T06:43:23;2.55;;;1.55;;
3601;SDS011;1815;50.950;6.920;2023-02-28T06:45:54;2.97;;;1.33;;
3601;SDS011;1815;50.950;6.920;2023-02-28T06:48:21;2.97;;;1.65;;
3601;SDS011;1815;50.950;6.920;2023-02-28T06:50:47;3.25;;;1.40;;
3601;SDS011;1815;50.950;6.920;2023-02-28T06:53:12;2.77;;;1.50;;
3601;SDS011;1815;50.950;6.920;2023-02-28T06:55:39;1.93;;;1.20;;
3601;SDS011;1815;50.950;6.920;2023-02-28T06:58:05;2.90;;;1.30;;
3601;SDS011;1815;50.950;6.920;2023-02-28T07:00:43;2.97;;;1.60;;
3601;SDS011;1815;50.950;6.920;2023-02-28T07:03:10;3.13;;;1.00;;
3601;SDS011;1815;50.950;6.920;2023-02-28T07:05:37;2.38;;;1.20;;
3601;SDS011;1815;50.950;6.920;2023-02-28T07:08:04;1.98;;;1.20;;
3601;SDS011;1815;50.950;6.920;2023-02-28T07:10:31;3.35;;;1.40;;
3601;SDS011;1815;50.950;6.920;2023-02-28T07:12:58;2.40;;;1.50;;
3601;SDS011;1815;50.950;6.920;2023-02-28T07:15:24;1.92;;;1.30;;
3601;SDS011;1815;50.950;6.920;2023-02-28T07:17:50;2.53;;;1.30;;
3601;SDS011;1815;50.950;6.920;2023-02-28T07:20:16;3.13;;;1.80;;
3601;SDS011;1815;50.950;6.920;2023-02-28T07:22:42;2.00;;;1.33;;
3601;SDS011;1815;50.950;6.920;2023-02-28T07:25:08;2.53;;;1.30;;
3601;SDS011;1815;50.950;6.920;2023-02-28T07:27:34;2.92;;;1.23;;
3601;SDS011;1815;50.950;6.920;2023-02-28T07:30:00;2.50;;;1.17;;
3601;SDS011;1815;50.950;6.920;2023-02-28T07:32:30;4.40;;;1.80;;
3601;SDS011;1815;50.950;6.920;2023-02-28T07:34:55;5.27;;;1.77;;
3601;SDS011;1815;50.950;6.920;2023-02-28T07:37:21;3.20;;;1.27;;
3601;SDS011;1815;50.950;6.920;2023-02-28T07:39:47;3.17;;;1.43;;
3601;SDS011;1815;50.950;6.920;2023-02-28T07:42:12;3.23;;;1.57;;
3601;SDS011;1815;50.950;6.920;2023-02-28T07:44:38;2.03;;;1.33;;
3601;SDS011;1815;50.950;6.920;2023-02-28T07:47:06;2.95;;;1.10;;
3601;SDS011;1815;50.950;6.920;2023-02-28T07:49:35;2.35;;;1.50;;
3601;SDS011;1815;50.950;6.920;2023-02-28T07:52:02;2.40;;;2.08;;
3601;SDS011;1815;50.950;6.920;2023-02-28T07:54:29;2.28;;;1.20;;
3601;SDS011;1815;50.950;6.920;2023-02-28T07:56:55;2.83;;;1.20;;
3601;SDS011;1815;50.950;6.920;2023-02-28T07:59:21;3.90;;;1.93;;
3601;SDS011;1815;50.950;6.920;2023-02-28T08:01:47;1.97;;;1.00;;
3601;SDS011;1815;50.950;6.920;2023-02-28T08:04:15;4.82;;;1.70;;
3601;SDS011;1815;50.950;6.920;2023-02-28T08:06:42;2.33;;;1.40;;
3601;SDS011;1815;50.950;6.920;2023-02-28T08:09:08;3.15;;;1.67;;
3601;SDS011;1815;50.950;6.920;2023-02-28T08:11:34;2.57;;;1.33;;
3601;SDS011;1815;50.950;6.920;2023-02-28T08:14:00;1.90;;;1.20;;
3601;SDS011;1815;50.950;6.920;2023-02-28T08:16:26;2.05;;;1.20;;
3601;SDS011;1815;50.950;6.920;2023-02-28T08:18:52;2.63;;;1.50;;
3601;SDS011;1815;50.950;6.920;2023-02-28T08:21:18;1.60;;;1.08;;
3601;SDS011;1815;50.950;6.920;2023-02-28T08:23:49;3.28;;;1.48;;
3601;SDS011;1815;50.950;6.920;2023-02-28T08:26:16;2.80;;;1.15;;
3601;SDS011;1815;50.950;6.920;2023-02-28T08:28:42;2.20;;;1.50;;
3601;SDS011;1815;50.950;6.920;2023-02-28T08:31:10;2.67;;;1.50;;
3601;SDS011;1815;50.950;6.920;2023-02-28T08:33:38;2.80;;;1.50;;
3601;SDS011;1815;50.950;6.920;2023-02-28T08:36:05;2.75;;;1.40;;
3601;SDS011;1815;50.950;6.920;2023-02-28T08:38:31;3.22;;;1.00;;
3601;SDS011;1815;50.950;6.920;2023-02-28T08:40:58;3.30;;;1.17;;
3601;SDS011;1815;50.950;6.920;2023-02-28T08:43:25;3.45;;;0.90;;
3601;SDS011;1815;50.950;6.920;2023-02-28T08:45:51;6.10;;;1.03;;
3601;SDS011;1815;50.950;6.920;2023-02-28T08:48:17;2.33;;;1.30;;
3601;SDS011;1815;50.950;6.920;2023-02-28T08:50:43;2.57;;;1.10;;
3601;SDS011;1815;50.950;6.920;2023-02-28T08:53:09;2.10;;;1.10;;
3601;SDS011;1815;50.950;6.920;2023-02-28T08:55:34;2.10;;;1.10;;
3601;SDS011;1815;50.950;6.920;2023-02-28T08:58:00;1.60;;;0.70;;
3601;SDS011;1815;50.950;6.920;2023-02-28T09:00:26;2.10;;;1.00;;
3601;SDS011;1815;50.950;6.920;2023-02-28T09:02:52;3.30;;;0.90;;
3601;SDS011;1815;50.950;6.920;2023-02-28T09:05:19;2.27;;;1.03;;
3601;SDS011;1815;50.950;6.920;2023-02-28T09:07:45;2.07;;;1.23;;
3601;SDS011;1815;50.950;6.920;2023-02-28T09:10:11;1.60;;;0.80;;
3601;SDS011;1815;50.950;6.920;2023-02-28T09:12:36;2.00;;;1.00;;
3601;SDS011;1815;50.950;6.920;2023-02-28T09:15:02;2.27;;;0.87;;
3601;SDS011;1815;50.950;6.920;2023-02-28T09:17:29;1.60;;;0.70;;
3601;SDS011;1815;50.950;6.920;2023-02-28T09:19:54;1.60;;;0.70;;
3601;SDS011;1815;50.950;6.920;2023-02-28T09:22:20;1.67;;;0.80;;
3601;SDS011;1815;50.950;6.920;2023-02-28T09:24:46;1.90;;;0.80;;
3601;SDS011;1815;50.950;6.920;2023-02-28T09:27:12;1.70;;;0.63;;
3601;SDS011;1815;50.950;6.920;2023-02-28T09:29:37;1.73;;;0.93;;
3601;SDS011;1815;50.950;6.920;2023-02-28T09:32:03;2.80;;;0.83;;
3601;SDS011;1815;50.950;6.920;2023-02-28T09:34:31;1.60;;;0.90;;
3601;SDS011;1815;50.950;6.920;2023-02-28T09:36:57;2.20;;;1.00;;
3601;SDS011;1815;50.950;6.920;2023-02-28T09:39:23;2.10;;;1.07;;
3601;SDS011;1815;50.950;6.920;2023-02-28T09:41:52;2.47;;;1.10;;
3601;SDS011;1815;50.950;6.920;2023-02-28T09:44:22;2.60;;;0.80;;
3601;SDS011;1815;50.950;6.920;2023-02-28T09:46:57;2.93;;;1.00;;
3601;SDS011;1815;50.950;6.920;2023-02-28T09:49:35;2.70;;;1.10;;
3601;SDS011;1815;50.950;6.920;2023-02-28T09:52:07;2.60;;;0.90;;
3601;SDS011;1815;50.950;6.920;2023-02-28T09:54:43;2.00;;;0.90;;
3601;SDS011;1815;50.950;6.920;2023-02-28T09:57:23;4.80;;;1.10;;
3601;SDS011;1815;50.950;6.920;2023-02-28T10:00:15;3.20;;;1.00;;
3601;SDS011;1815;50.950;6.920;2023-02-28T10:05:25;2.30;;;0.90;;
3601;SDS011;1815;50.950;6.920;2023-02-28T10:07:57;1.50;;;0.80;;
3601;SDS011;1815;50.950;6.920;2023-02-28T10:10:37;1.50;;;0.80;;
3601;SDS011;1815;50.950;6.920;2023-02-28T10:13:13;2.70;;;0.70;;
3601;SDS011;1815;50.950;6.920;2023-02-28T10:15:45;3.30;;;1.00;;
3601;SDS011;1815;50.950;6.920;2023-02-28T10:22:50;2.80;;;0.70;;
3601;SDS011;1815;50.950;6.920;2023-02-28T10:25:27;4.20;;;0.90;;
3601;SDS011;1815;50.950;6.920;2023-02-28T10:27:59;1.60;;;0.70;;
3601;SDS011;1815;50.950;6.920;2023-02-28T10:30:40;1.80;;;0.80;;
3601;SDS011;1815;50.950;6.920;2023-02-28T10:33:24;7.83;;;1.33;;
3601;SDS011;1815;50.950;6.920;2023-02-28T10:35:53;3.00;;;0.80;;
3601;SDS011;1815;50.950;6.920;2023-02-28T10:38:26;2.43;;;0.90;;
3601;SDS011;1815;50.950;6.920;2023-02-28T10:41:09;2.27;;;1.10;;
3601;SDS011;1815;50.950;6.920;2023-02-28T10:43:38;3.20;;;1.03;;
3601;SDS011;1815;50.950;6.920;2023-02-28T10:46:10;2.67;;;1.00;;
3601;SDS011;1815;50.950;6.920;2023-02-28T10:49:25;1.60;;;0.90;;
3601;SDS011;1815;50.950;6.920;2023-02-28T10:51:46;2.00;;;1.10;;
3601;SDS011;1815;50.950;6.920;2023-02-28T10:54:22;2.43;;;1.10;;
3601;SDS011;1815;50.950;6.920;2023-02-28T10:57:17;5.20;;;1.23;;
3601;SDS011;1815;50.950;6.920;2023-02-28T10:59:52;1.60;;;0.93;;
3601;SDS011;1815;50.950;6.920;2023-02-28T11:02:33;2.37;;;0.90;;
3601;SDS011;1815;50.950;6.920;2023-02-28T11:05:01;3.20;;;0.87;;
3601;SDS011;1815;50.950;6.920;2023-02-28T11:07:27;3.50;;;0.93;;
3601;SDS011;1815;50.950;6.920;2023-02-28T11:09:54;1.77;;;0.97;;
3601;SDS011;1815;50.950;6.920;2023-02-28T11:12:40;1.60;;;0.80;;
3601;SDS011;1815;50.950;6.920;2023-02-28T11:15:19;4.07;;;1.10;;
3601;SDS011;1815;50.950;6.920;2023-02-28T11:17:54;2.63;;;1.00;;
3601;SDS011;1815;50.950;6.920;2023-02-28T11:20:26;2.60;;;1.40;;
3601;SDS011;1815;50.950;6.920;2023-02-28T11:22:58;3.10;;;1.83;;
3601;SDS011;1815;50.950;6.920;2023-02-28T11:27:59;2.73;;;1.47;;
3601;SDS011;1815;50.950;6.920;2023-02-28T11:32:58;2.23;;;1.10;;
3601;SDS011;1815;50.950;6.920;2023-02-28T11:37:59;2.17;;;1.10;;
3601;SDS011;1815;50.950;6.920;2023-02-28T11:43:11;3.20;;;1.10;;
3601;SDS011;1815;50.950;6.920;2023-02-28T11:48:22;4.93;;;1.07;;
3601;SDS011;1815;50.950;6.920;2023-02-28T11:53:43;2.10;;;1.00;;
3601;SDS011;1815;50.950;6.920;2023-02-28T11:56:41;1.60;;;0.90;;
3601;SDS011;1815;50.950;6.920;2023-02-28T12:02:29;2.23;;;1.00;;
3601;SDS011;1815;50.950;6.920;2023-02-28T12:05:34;1.90;;;0.90;;
3601;SDS011;1815;50.950;6.920;2023-02-28T12:16:53;3.50;;;1.27;;
3601;SDS011;1815;50.950;6.920;2023-02-28T12:19:44;1.93;;;1.20;;
3601;SDS011;1815;50.950;6.920;2023-02-28T12:28:19;4.13;;;1.33;;
3601;SDS011;1815;50.950;6.920;2023-02-28T12:31:31;1.93;;;1.10;;
3601;SDS011;1815;50.950;6.920;2023-02-28T12:33:43;1.80;;;1.03;;
3601;SDS011;1815;50.950;6.920;2023-02-28T12:36:14;2.30;;;1.27;;
3601;SDS011;1815;50.950;6.920;2023-02-28T12:46:59;2.10;;;1.43;;
3601;SDS011;1815;50.950;6.920;2023-02-28T12:49:34;2.40;;;1.40;;
3601;SDS011;1815;50.950;6.920;2023-02-28T12:52:04;2.00;;;1.20;;
3601;SDS011;1815;50.950;6.920;2023-02-28T12:57:12;2.05;;;1.40;;
3601;SDS011;1815;50.950;6.920;2023-02-28T13:00:33;2.60;;;1.33;;
3601;SDS011;1815;50.950;6.920;2023-02-28T13:03:06;4.18;;;1.80;;
3601;SDS011;1815;50.950;6.920;2023-02-28T13:05:55;2.40;;;1.60;;
3601;SDS011;1815;50.950;6.920;2023-02-28T13:09:04;2.00;;;1.27;;
3601;SDS011;1815;50.950;6.920;2023-02-28T13:11:45;2.38;;;1.42;;
3601;SDS011;1815;50.950;6.920;2023-02-28T13:16:58;2.42;;;1.73;;
3601;SDS011;1815;50.950;6.920;2023-02-28T13:19:26;2.95;;;1.60;;
3601;SDS011;1815;50.950;6.920;2023-02-28T13:21:54;4.15;;;2.40;;
3601;SDS011;1815;50.950;6.920;2023-02-28T13:24:38;2.08;;;1.45;;
3601;SDS011;1815;50.950;6.920;2023-02-28T13:30:49;3.92;;;1.75;;
3601;SDS011;1815;50.950;6.920;2023-02-28T13:36:01;2.63;;;1.98;;
3601;SDS011;1815;50.950;6.920;2023-02-28T13:38:36;4.40;;;2.47;;
3601;SDS011;1815;50.950;6.920;2023-02-28T13:44:14;4.63;;;1.75;;
3601;SDS011;1815;50.950;6.920;2023-02-28T14:07:56;2.90;;;1.30;;
3601;SDS011;1815;50.950;6.920;2023-02-28T14:10:28;2.58;;;1.10;;
3601;SDS011;1815;50.950;6.920;2023-02-28T14:13:12;1.73;;;1.20;;
3601;SDS011;1815;50.950;6.920;2023-02-28T14:15:58;1.80;;;1.17;;
3601;SDS011;1815;50.950;6.920;2023-02-28T14:20:57;2.20;;;1.58;;
3601;SDS011;1815;50.950;6.920;2023-02-28T14:23:32;3.30;;;1.90;;
3601;SDS011;1815;50.950;6.920;2023-02-28T14:32:02;2.40;;;1.40;;
3601;SDS011;1815;50.950;6.920;2023-02-28T14:37:10;4.13;;;2.78;;
3601;SDS011;1815;50.950;6.920;2023-02-28T14:39:44;7.55;;;3.08;;
3601;SDS011;1815;50.950;6.920;2023-02-28T14:44:59;2.63;;;1.42;;
3601;SDS011;1815;50.950;6.920;2023-02-28T14:47:33;3.10;;;1.63;;
3601;SDS011;1815;50.950;6.920;2023-02-28T14:50:00;4.28;;;2.03;;
3601;SDS011;1815;50.950;6.920;2023-02-28T14:52:32;4.88;;;2.80;;
3601;SDS011;1815;50.950;6.920;2023-02-28T14:57:31;2.72;;;1.83;;
3601;SDS011;1815;50.950;6.920;2023-02-28T15:02:37;5.72;;;1.90;;
3601;SDS011;1815;50.950;6.920;2023-02-28T15:07:35;2.90;;;2.10;;
3601;SDS011;1815;50.950;6.920;2023-02-28T15:12:35;3.40;;;1.63;;
3601;SDS011;1815;50.950;6.920;2023-02-28T15:15:02;2.60;;;1.63;;
3601;SDS011;1815;50.950;6.920;2023-02-28T15:17:28;2.65;;;1.80;;
3601;SDS011;1815;50.950;6.920;2023-02-28T15:19:54;5.93;;;3.60;;
3601;SDS011;1815;50.950;6.920;2023-02-28T15:22:31;4.50;;;2.07;;
3601;SDS011;1815;50.950;6.920;2023-02-28T15:25:09;4.05;;;2.65;;
3601;SDS011;1815;50.950;6.920;2023-02-28T15:27:42;4.05;;;2.35;;
3601;SDS011;1815;50.950;6.920;2023-02-28T15:30:30;4.68;;;2.33;;
3601;SDS011;1815;50.950;6.920;2023-02-28T15:35:38;3.53;;;2.15;;
3601;SDS011;1815;50.950;6.920;2023-02-28T15:38:23;3.37;;;1.90;;
3601;SDS011;1815;50.950;6.920;2023-02-28T15:40:52;2.90;;;1.90;;
3601;SDS011;1815;50.950;6.920;2023-02-28T15:43:30;3.05;;;1.50;;
3601;SDS011;1815;50.950;6.920;2023-02-28T15:46:06;4.00;;;1.65;;
3601;SDS011;1815;50.950;6.920;2023-02-28T15:48:42;2.95;;;1.60;;
3601;SDS011;1815;50.950;6.920;2023-02-28T15:53:52;2.90;;;1.85;;
3601;SDS011;1815;50.950;6.920;2023-02-28T15:56:26;4.75;;;1.80;;
3601;SDS011;1815;50.950;6.920;2023-02-28T15:58:55;3.67;;;2.20;;
3601;SDS011;1815;50.950;6.920;2023-02-28T16:01:33;3.22;;;1.52;;
3601;SDS011;1815;50.950;6.920;2023-02-28T16:04:01;3.67;;;1.50;;
3601;SDS011;1815;50.950;6.920;2023-02-28T16:06:36;2.75;;;1.30;;
3601;SDS011;1815;50.950;6.920;2023-02-28T16:09:05;2.83;;;1.75;;
3601;SDS011;1815;50.950;6.920;2023-02-28T16:11:34;3.17;;;2.00;;
3601;SDS011;1815;50.950;6.920;2023-02-28T16:14:04;2.50;;;1.50;;
3601;SDS011;1815;50.950;6.920;2023-02-28T16:16:30;2.67;;;1.70;;
3601;SDS011;1815;50.950;6.920;2023-02-28T16:18:57;2.40;;;1.70;;
3601;SDS011;1815;50.950;6.920;2023-02-28T16:21:24;2.67;;;1.97;;
3601;SDS011;1815;50.950;6.920;2023-02-28T16:23:50;3.45;;;2.00;;
3601;SDS011;1815;50.950;6.920;2023-02-28T16:26:20;5.30;;;1.60;;
3601;SDS011;1815;50.950;6.920;2023-02-28T16:28:48;3.90;;;1.77;;
3601;SDS011;1815;50.950;6.920;2023-02-28T16:31:14;2.58;;;1.50;;
3601;SDS011;1815;50.950;6.920;2023-02-28T16:33:42;2.40;;;1.45;;
3601;SDS011;1815;50.950;6.920;2023-02-28T16:39:20;3.13;;;1.52;;
3601;SDS011;1815;50.950;6.920;2023-02-28T16:41:46;4.17;;;2.70;;
3601;SDS011;1815;50.950;6.920;2023-02-28T16:46:56;3.35;;;2.00;;
3601;SDS011;1815;50.950;6.920;2023-02-28T16:49:24;2.78;;;2.25;;
3601;SDS011;1815;50.950;6.920;2023-02-28T16:51:50;3.43;;;1.80;;
3601;SDS011;1815;50.950;6.920;2023-02-28T16:54:16;2.43;;;1.37;;
3601;SDS011;1815;50.950;6.920;2023-02-28T16:56:43;3.27;;;1.97;;
3601;SDS011;1815;50.950;6.920;2023-02-28T16:59:10;3.10;;;2.38;;
3601;SDS011;1815;50.950;6.920;2023-02-28T17:01:37;2.88;;;1.80;;
3601;SDS011;1815;50.950;6.920;2023-02-28T17:04:03;2.63;;;1.20;;
3601;SDS011;1815;50.950;6.920;2023-02-28T17:06:29;2.33;;;1.27;;
3601;SDS011;1815;50.950;6.920;2023-02-28T17:08:56;3.78;;;1.30;;
3601;SDS011;1815;50.950;6.920;2023-02-28T17:11:23;2.45;;;1.20;;
3601;SDS011;1815;50.950;6.920;2023-02-28T17:13:49;3.22;;;1.77;;
3601;SDS011;1815;50.950;6.920;2023-02-28T17:16:23;1.80;;;1.33;;
3601;SDS011;1815;50.950;6.920;2023-02-28T17:18:53;3.28;;;1.20;;
3601;SDS011;1815;50.950;6.920;2023-02-28T17:21:21;2.20;;;1.42;;
3601;SDS011;1815;50.950;6.920;2023-02-28T17:23:47;2.97;;;1.60;;
3601;SDS011;1815;50.950;6.920;2023-02-28T17:26:17;2.97;;;1.80;;
3601;SDS011;1815;50.950;6.920;2023-02-28T17:28:45;4.72;;;1.67;;
3601;SDS011;1815;50.950;6.920;2023-02-28T17:31:12;2.97;;;1.35;;
3601;SDS011;1815;50.950;6.920;2023-02-28T17:33:39;3.95;;;2.10;;
3601;SDS011;1815;50.950;6.920;2023-02-28T17:36:05;3.40;;;1.92;;
3601;SDS011;1815;50.950;6.920;2023-02-28T17:38:31;2.38;;;1.40;;
3601;SDS011;1815;50.950;6.920;2023-02-28T17:40:57;3.60;;;1.93;;
3601;SDS011;1815;50.950;6.920;2023-02-28T17:43:24;3.20;;;1.47;;
3601;SDS011;1815;50.950;6.920;2023-02-28T17:45:51;2.25;;;1.17;;
3601;SDS011;1815;50.950;6.920;2023-02-28T17:48:17;2.35;;;1.40;;
3601;SDS011;1815;50.950;6.920;2023-02-28T17:50:42;3.87;;;1.90;;
3601;SDS011;1815;50.950;6.920;2023-02-28T17:53:08;11.60;;;2.30;;
3601;SDS011;1815;50.950;6.920;2023-02-28T17:55:35;2.35;;;1.50;;
3601;SDS011;1815;50.950;6.920;2023-02-28T17:58:02;2.35;;;1.63;;
3601;SDS011;1815;50.950;6.920;2023-02-28T18:00:28;3.67;;;1.88;;
3601;SDS011;1815;50.950;6.920;2023-02-28T18:02:55;2.10;;;1.30;;
3601;SDS011;1815;50.950;6.920;2023-02-28T18:05:20;4.73;;;1.63;;
3601;SDS011;1815;50.950;6.920;2023-02-28T18:07:46;3.10;;;2.20;;
3601;SDS011;1815;50.950;6.920;2023-02-28T18:10:13;3.10;;;2.03;;